createdAt,value
2018-03-04T00:01:15.455Z,51.40
2018-03-04T00:03:45.212Z,54.27
2018-03-04T00:06:14.640Z,51.57
2018-03-04T00:08:45.497Z,51.63
2018-03-04T00:11:15.453Z,52.20
2018-03-04T00:13:46.458Z,55.10
2018-03-04T00:16:14.779Z,53.00
2018-03-04T00:18:45.558Z,53.50
2018-03-04T00:21:16.774Z,53.70
2018-03-04T00:23:46.780Z,51.80
2018-03-04T00:26:18.146Z,55.97
2018-03-04T00:28:48.489Z,58.73
2018-03-04T00:31:18.727Z,51.80
2018-03-04T00:33:49.857Z,53.87
2018-03-04T00:36:19.422Z,56.40
2018-03-04T00:38:50.083Z,50.73
2018-03-04T00:41:19.899Z,53.93
2018-03-04T00:43:49.268Z,52.40
2018-03-04T00:46:19.697Z,55.13
2018-03-04T00:48:49.005Z,56.73
2018-03-04T00:51:18.541Z,54.47
2018-03-04T00:53:48.168Z,52.53
2018-03-04T00:56:17.210Z,57.00
2018-03-04T00:58:56.257Z,54.40
2018-03-04T01:01:23.761Z,58.77
2018-03-04T01:03:52.049Z,58.27
2018-03-04T01:06:21.046Z,57.37
2018-03-04T01:08:50.178Z,56.87
2018-03-04T01:11:18.404Z,56.73
2018-03-04T01:13:48.420Z,58.40
2018-03-04T01:16:17.858Z,55.70
2018-03-04T01:18:49.066Z,51.37
2018-03-04T01:21:19.069Z,54.77
2018-03-04T01:23:49.837Z,57.90
2018-03-04T01:26:19.732Z,54.80
2018-03-04T01:28:48.722Z,54.03
2018-03-04T01:31:19.461Z,57.00
2018-03-04T01:33:49.922Z,58.93
2018-03-04T01:36:19.295Z,58.30
2018-03-04T01:38:48.888Z,60.80
2018-03-04T01:41:18.855Z,55.67
2018-03-04T01:43:48.404Z,57.37
2018-03-04T01:46:19.126Z,57.13
2018-03-04T01:48:50.989Z,55.20
2018-03-04T01:51:19.153Z,59.80
2018-03-04T01:53:57.329Z,54.07
2018-03-04T01:56:24.832Z,56.57
2018-03-04T01:58:53.121Z,51.40
2018-03-04T02:01:21.448Z,56.93
2018-03-04T02:03:50.906Z,61.57
2018-03-04T02:06:29.193Z,60.13
2018-03-04T02:08:56.722Z,59.80
2018-03-04T02:11:25.009Z,60.73
2018-03-04T02:13:52.590Z,58.80
2018-03-04T02:16:21.279Z,57.80
2018-03-04T02:18:50.321Z,56.63
2018-03-04T02:21:19.858Z,57.10
2018-03-04T02:23:50.318Z,59.10
2018-03-04T02:26:20.751Z,59.22
2018-03-04T02:28:50.246Z,59.57
2018-03-04T02:31:20.367Z,61.37
2018-03-04T02:33:51.914Z,56.80
2018-03-04T02:36:21.124Z,55.13
2018-03-04T02:38:51.063Z,58.47
2018-03-04T02:41:21.046Z,59.70
2018-03-04T02:43:51.093Z,54.97
2018-03-04T02:46:20.345Z,58.47
2018-03-04T02:48:50.264Z,54.60
2018-03-04T02:51:29.025Z,57.50
2018-03-04T02:53:56.594Z,58.20
2018-03-04T02:56:24.059Z,59.93
2018-03-04T02:58:51.612Z,61.00
2018-03-04T03:01:20.701Z,59.17
2018-03-04T03:03:52.086Z,58.10
2018-03-04T03:06:31.589Z,59.33
2018-03-04T03:08:59.093Z,57.23
2018-03-04T03:11:27.376Z,60.33
2018-03-04T03:13:55.670Z,57.30
2018-03-04T03:16:23.962Z,58.97
2018-03-04T03:18:52.318Z,55.17
2018-03-04T03:21:21.289Z,58.03
2018-03-04T03:23:50.325Z,51.97
2018-03-04T03:26:20.474Z,58.27
2018-03-04T03:28:49.441Z,56.83
2018-03-04T03:31:28.373Z,58.50
2018-03-04T03:33:55.916Z,57.87
2018-03-04T03:36:24.200Z,56.37
2018-03-04T03:38:52.475Z,55.10
2018-03-04T03:41:20.348Z,58.50
2018-03-04T03:43:59.378Z,55.70
2018-03-04T03:46:26.985Z,56.50
2018-03-04T03:48:55.280Z,59.37
2018-03-04T03:51:23.565Z,52.13
2018-03-04T03:53:51.453Z,56.67
2018-03-04T03:56:20.496Z,60.00
2018-03-04T03:58:49.956Z,57.10
2018-03-04T04:01:30.093Z,53.40
2018-03-04T04:03:57.597Z,52.20
2018-03-04T04:06:25.121Z,57.10
2018-03-04T04:08:52.625Z,55.27
2018-03-04T04:11:20.460Z,56.30
2018-03-04T04:13:59.650Z,56.90
2018-03-04T04:16:27.184Z,58.67
2018-03-04T04:18:54.742Z,54.33
2018-03-04T04:21:22.265Z,53.17
2018-03-04T04:23:51.365Z,56.30
2018-03-04T04:26:19.596Z,55.43
2018-03-04T04:28:50.257Z,54.30
2018-03-04T04:31:19.937Z,53.40
2018-03-04T04:33:49.983Z,53.07
2018-03-04T04:36:19.883Z,49.70
2018-03-04T04:38:49.655Z,48.73
2018-03-04T04:41:28.940Z,54.60
2018-03-04T04:43:56.481Z,53.20
2018-03-04T04:46:24.006Z,54.47
2018-03-04T04:48:51.615Z,53.60
2018-03-04T04:51:21.236Z,52.47
2018-03-04T04:53:50.910Z,54.70
2018-03-04T04:56:19.464Z,53.77
2018-03-04T04:58:49.974Z,54.43
2018-03-04T05:01:20.946Z,54.73
2018-03-04T05:03:51.069Z,53.97
2018-03-04T05:06:21.485Z,54.83
2018-03-04T05:08:51.246Z,56.03
2018-03-04T05:11:21.101Z,56.90
2018-03-04T05:13:51.043Z,56.80
2018-03-04T05:16:20.990Z,54.17
2018-03-04T05:18:51.382Z,56.83
2018-03-04T05:21:21.266Z,54.10
2018-03-04T05:23:51.438Z,56.17
2018-03-04T05:26:21.109Z,55.70
2018-03-04T05:28:51.047Z,54.73
2018-03-04T05:31:21.169Z,52.53
2018-03-04T05:33:51.402Z,51.80
2018-03-04T05:36:26.394Z,54.87
2018-03-04T05:38:54.671Z,52.80
2018-03-04T05:41:22.962Z,52.27
2018-03-04T05:43:51.469Z,52.23
2018-03-04T05:46:21.289Z,52.10
2018-03-04T05:48:50.093Z,54.80
2018-03-04T05:51:20.114Z,55.20
2018-03-04T05:53:49.453Z,55.03
2018-03-04T05:56:29.839Z,54.57
2018-03-04T05:58:57.395Z,55.20
2018-03-04T06:01:24.921Z,54.63
2018-03-04T06:03:52.445Z,48.60
2018-03-04T06:06:21.437Z,50.57
2018-03-04T06:08:50.201Z,54.37
2018-03-04T06:11:30.434Z,53.77
2018-03-04T06:13:57.990Z,52.60
2018-03-04T06:16:25.550Z,52.53
2018-03-04T06:18:53.843Z,48.10
2018-03-04T06:21:21.571Z,52.13
2018-03-04T06:24:00.872Z,52.70
2018-03-04T06:26:28.382Z,49.57
2018-03-04T06:28:55.902Z,52.27
2018-03-04T06:31:24.174Z,50.03
2018-03-04T06:33:51.778Z,53.17
2018-03-04T06:36:20.142Z,52.03
2018-03-04T06:38:51.462Z,52.73
2018-03-04T06:41:20.618Z,53.43
2018-03-04T06:43:51.495Z,53.30
2018-03-04T06:46:19.258Z,53.70
2018-03-04T06:48:47.971Z,50.30
2018-03-04T06:51:16.567Z,53.23
2018-03-04T06:53:50.621Z,52.80
2018-03-04T06:56:21.317Z,51.33
2018-03-04T06:58:50.446Z,52.80
2018-03-04T07:01:20.742Z,51.50
2018-03-04T07:03:50.318Z,48.97
2018-03-04T07:06:19.671Z,49.40
2018-03-04T07:08:49.589Z,53.23
2018-03-04T07:11:19.667Z,51.97
2018-03-04T07:13:49.106Z,51.27
2018-03-04T07:16:19.291Z,53.27
2018-03-04T07:18:49.743Z,51.83
2018-03-04T07:21:20.644Z,44.67
2018-03-04T07:24:00.346Z,51.23
2018-03-04T07:26:28.244Z,52.00
2018-03-04T07:28:56.632Z,53.10
2018-03-04T07:31:24.902Z,55.03
2018-03-04T07:33:52.431Z,53.87
2018-03-04T07:36:20.419Z,50.30
2018-03-04T07:38:50.609Z,53.30
2018-03-04T07:41:18.879Z,50.40
2018-03-04T07:43:49.378Z,50.30
2018-03-04T07:46:19.491Z,53.00
2018-03-04T07:48:48.233Z,51.60
2018-03-04T07:51:18.811Z,47.70
2018-03-04T07:53:48.127Z,53.83
2018-03-04T07:56:19.214Z,49.07
2018-03-04T07:58:49.849Z,50.60
2018-03-04T08:01:19.926Z,49.20
2018-03-04T08:03:49.270Z,53.50
2018-03-04T08:06:28.533Z,50.87
2018-03-04T08:08:56.092Z,49.90
2018-03-04T08:11:24.361Z,49.83
2018-03-04T08:13:51.957Z,49.80
2018-03-04T08:16:20.553Z,50.83
2018-03-04T08:18:49.378Z,50.77
2018-03-04T08:21:18.353Z,52.43
2018-03-04T08:23:48.833Z,52.40
2018-03-04T08:26:29.073Z,48.77
2018-03-04T08:28:57.453Z,49.10
2018-03-04T08:31:25.046Z,48.53
2018-03-04T08:33:52.565Z,52.03
2018-03-04T08:36:20.309Z,45.90
2018-03-04T08:38:48.361Z,48.43
2018-03-04T08:41:16.616Z,45.97
2018-03-04T08:43:46.209Z,46.33
2018-03-04T08:46:14.325Z,46.30
2018-03-04T08:48:43.095Z,44.43
2018-03-04T08:51:11.865Z,43.00
2018-03-04T08:53:40.892Z,47.10
2018-03-04T08:56:09.870Z,48.53
2018-03-04T08:58:37.855Z,50.47
2018-03-04T09:01:06.645Z,49.03
2018-03-04T09:03:35.758Z,50.30
2018-03-04T09:06:03.737Z,49.87
2018-03-04T09:08:32.883Z,43.60
2018-03-04T09:11:00.445Z,49.90
2018-03-04T09:13:28.801Z,47.37
2018-03-04T09:15:56.407Z,46.97
2018-03-04T09:18:23.916Z,47.90
2018-03-04T09:20:51.434Z,43.30
2018-03-04T09:23:20.201Z,42.33
2018-03-04T09:26:00.426Z,44.07
2018-03-04T09:28:27.926Z,43.27
2018-03-04T09:30:55.555Z,44.20
2018-03-04T09:33:23.845Z,43.90
2018-03-04T09:35:51.546Z,45.63
2018-03-04T09:38:20.378Z,43.07
2018-03-04T09:40:49.741Z,42.87
2018-03-04T09:43:19.666Z,41.77
2018-03-04T09:45:49.785Z,41.80
2018-03-04T09:48:18.881Z,44.60
2018-03-04T09:50:47.108Z,42.80
2018-03-04T09:53:16.651Z,43.43
2018-03-04T09:55:46.219Z,45.80
2018-03-04T09:58:17.209Z,40.43
2018-03-04T10:00:47.636Z,39.03
2018-03-04T10:03:26.598Z,38.47
2018-03-04T10:05:54.150Z,41.10
2018-03-04T10:08:21.649Z,40.30
2018-03-04T10:10:49.170Z,40.07
2018-03-04T10:13:18.462Z,38.30
2018-03-04T10:15:46.405Z,39.57
2018-03-04T10:18:14.429Z,39.87
2018-03-04T10:20:43.065Z,40.50
2018-03-04T10:23:11.160Z,40.50
2018-03-04T10:25:39.325Z,38.47
2018-03-04T10:28:06.897Z,39.67
2018-03-04T10:30:35.177Z,38.70
2018-03-04T10:33:03.610Z,36.03
2018-03-04T10:35:31.400Z,39.20
2018-03-04T10:37:58.918Z,38.00
2018-03-04T10:40:27.219Z,37.77
2018-03-04T10:42:54.717Z,38.13
2018-03-04T10:45:22.393Z,39.00
2018-03-04T10:47:49.930Z,39.83
2018-03-04T10:50:18.198Z,39.70
2018-03-04T10:52:46.145Z,36.07
2018-03-04T10:55:14.838Z,37.50
2018-03-04T10:57:53.273Z,38.30
2018-03-04T11:00:24.599Z,37.37
2018-03-04T11:02:52.117Z,36.90
2018-03-04T11:05:19.609Z,35.20
2018-03-04T11:07:47.201Z,40.80
2018-03-04T11:10:15.555Z,36.80
2018-03-04T11:12:43.168Z,37.17
2018-03-04T11:15:10.803Z,37.30
2018-03-04T11:17:41.355Z,37.60
2018-03-04T11:20:11.528Z,35.70
2018-03-04T11:22:41.610Z,37.50
2018-03-04T11:25:09.598Z,35.73
2018-03-04T11:27:38.034Z,34.63
2018-03-04T11:30:05.592Z,37.07
2018-03-04T11:32:33.877Z,34.47
2018-03-04T11:35:02.141Z,35.63
2018-03-04T11:37:29.854Z,35.57
2018-03-04T11:39:57.417Z,34.97
2018-03-04T11:42:25.768Z,33.00
2018-03-04T11:44:53.278Z,34.00
2018-03-04T11:47:20.798Z,33.03
2018-03-04T11:49:48.848Z,33.93
2018-03-04T11:52:16.443Z,31.17
2018-03-04T11:54:44.328Z,32.57
2018-03-04T11:57:12.694Z,31.80
2018-03-04T11:59:40.879Z,33.57
2018-03-04T12:02:11.131Z,32.60
2018-03-04T12:04:38.908Z,33.47
2018-03-04T12:07:07.606Z,32.70
2018-03-04T12:09:36.589Z,34.07
2018-03-04T12:12:04.589Z,33.93
2018-03-04T12:14:32.339Z,35.20
2018-03-04T12:17:00.500Z,30.70
2018-03-04T12:19:28.097Z,34.97
2018-03-04T12:21:56.498Z,33.33
2018-03-04T12:24:24.192Z,33.57
2018-03-04T12:26:51.705Z,33.43
2018-03-04T12:29:19.217Z,31.70
2018-03-04T12:31:46.742Z,32.07
2018-03-04T12:34:15.051Z,31.53
2018-03-04T12:36:43.390Z,27.73
2018-03-04T12:39:10.930Z,28.57
2018-03-04T12:41:40.616Z,24.47
2018-03-04T12:44:08.238Z,25.97
2018-03-04T12:46:36.532Z,24.70
2018-03-04T12:49:06.764Z,22.80
2018-03-04T12:51:35.202Z,24.63
2018-03-04T12:54:02.917Z,26.63
2018-03-04T12:56:31.214Z,22.03
2018-03-04T12:58:58.748Z,24.50
2018-03-04T13:01:26.334Z,22.93
2018-03-04T13:03:54.646Z,23.30
2018-03-04T13:06:22.911Z,27.73
2018-03-04T13:08:50.442Z,25.40
2018-03-04T13:11:17.969Z,24.70
2018-03-04T13:13:45.742Z,25.33
2018-03-04T13:16:15.226Z,22.57
2018-03-04T13:18:44.420Z,22.80
2018-03-04T13:21:12.272Z,23.60
2018-03-04T13:23:39.794Z,23.50
2018-03-04T13:26:07.302Z,22.97
2018-03-04T13:28:35.690Z,24.50
2018-03-04T13:31:03.953Z,26.13
2018-03-04T13:33:31.554Z,23.43
2018-03-04T13:35:59.818Z,23.97
2018-03-04T13:38:27.536Z,23.67
2018-03-04T13:40:55.097Z,21.70
2018-03-04T13:43:22.991Z,23.00
2018-03-04T13:45:50.891Z,24.07
2018-03-04T13:48:18.406Z,21.80
2018-03-04T13:50:47.373Z,21.07
2018-03-04T13:53:14.887Z,18.00
2018-03-04T13:55:42.480Z,19.93
2018-03-04T13:58:10.016Z,17.23
2018-03-04T14:00:38.294Z,16.90
2018-03-04T14:03:05.814Z,18.80
2018-03-04T14:05:33.319Z,17.80
2018-03-04T14:08:00.834Z,17.57
2018-03-04T14:10:29.131Z,16.87
2018-03-04T14:12:57.578Z,18.57
2018-03-04T14:15:25.614Z,17.63
2018-03-04T14:17:53.342Z,18.10
2018-03-04T14:20:22.824Z,19.00
2018-03-04T14:22:50.796Z,17.20
2018-03-04T14:25:18.384Z,18.97
2018-03-04T14:27:45.921Z,19.43
2018-03-04T14:30:14.201Z,18.00
2018-03-04T14:32:42.936Z,19.37
2018-03-04T14:35:11.764Z,17.27
2018-03-04T14:37:39.381Z,16.27
2018-03-04T14:40:07.650Z,16.77
2018-03-04T14:42:35.173Z,16.67
2018-03-04T14:45:02.670Z,16.57
2018-03-04T14:47:40.806Z,16.80
2018-03-04T14:50:08.428Z,17.80
2018-03-04T14:52:35.950Z,18.90
2018-03-04T14:55:03.598Z,16.63
2018-03-04T14:57:31.117Z,19.17
2018-03-04T14:59:59.128Z,18.20
2018-03-04T15:02:28.566Z,17.10
2018-03-04T15:04:56.720Z,18.10
2018-03-04T15:07:25.969Z,19.30
2018-03-04T15:09:55.382Z,16.90
2018-03-04T15:12:34.709Z,17.57
2018-03-04T15:15:02.322Z,17.77
2018-03-04T15:17:30.591Z,18.40
2018-03-04T15:20:00.215Z,17.63
2018-03-04T15:22:28.753Z,16.90
2018-03-04T15:24:57.279Z,17.17
2018-03-04T15:27:35.466Z,16.10
2018-03-04T15:30:03.075Z,15.47
2018-03-04T15:32:30.592Z,16.80
2018-03-04T15:34:58.222Z,15.80
2018-03-04T15:37:26.663Z,18.37
2018-03-04T15:39:55.516Z,16.27
2018-03-04T15:42:24.388Z,17.23
2018-03-04T15:45:03.714Z,15.83
2018-03-04T15:47:31.470Z,15.60
2018-03-04T15:50:00.139Z,16.30
2018-03-04T15:52:30.515Z,16.10
2018-03-04T15:55:01.449Z,15.40
2018-03-04T15:57:31.122Z,15.47
2018-03-04T16:00:10.157Z,14.93
2018-03-04T16:02:37.863Z,16.80
2018-03-04T16:05:05.444Z,16.73
2018-03-04T16:07:32.960Z,17.67
2018-03-04T16:10:01.561Z,16.40
2018-03-04T16:12:31.579Z,15.87
2018-03-04T16:15:01.282Z,15.10
2018-03-04T16:17:30.345Z,16.43
2018-03-04T16:20:00.519Z,14.67
2018-03-04T16:22:31.130Z,15.70
2018-03-04T16:25:01.027Z,15.40
2018-03-04T16:27:31.120Z,17.90
2018-03-04T16:30:00.162Z,15.60
2018-03-04T16:32:28.989Z,17.37
2018-03-04T16:35:00.315Z,17.50
2018-03-04T16:37:30.187Z,17.30
2018-03-04T16:40:08.586Z,16.50
2018-03-04T16:42:36.149Z,14.67
2018-03-04T16:45:03.658Z,15.77
2018-03-04T16:47:31.213Z,18.90
2018-03-04T16:50:00.235Z,17.43
2018-03-04T16:52:29.786Z,17.40
2018-03-04T16:55:00.001Z,18.80
2018-03-04T16:57:29.971Z,19.63
2018-03-04T16:59:59.452Z,19.00
2018-03-04T17:02:27.485Z,18.57
2018-03-04T17:04:57.046Z,19.77
2018-03-04T17:07:26.644Z,21.23
2018-03-04T17:09:57.824Z,19.80
2018-03-04T17:12:37.846Z,19.60
2018-03-04T17:15:05.466Z,20.40
2018-03-04T17:17:32.980Z,21.40
2018-03-04T17:20:01.324Z,21.93
2018-03-04T17:22:41.322Z,20.63
2018-03-04T17:25:08.887Z,21.33
2018-03-04T17:27:36.402Z,24.67
2018-03-04T17:30:03.910Z,24.17
2018-03-04T17:32:33.122Z,24.03
2018-03-04T17:35:03.275Z,24.83
2018-03-04T17:37:34.300Z,22.80
2018-03-04T17:40:01.866Z,23.90
2018-03-04T17:42:37.675Z,23.13
2018-03-04T17:45:05.218Z,24.17
2018-03-04T17:47:34.833Z,25.47
2018-03-04T17:50:03.089Z,25.90
2018-03-04T17:52:34.321Z,24.20
2018-03-04T17:55:03.302Z,23.50
2018-03-04T17:57:33.122Z,22.20
2018-03-04T18:00:02.116Z,21.07
2018-03-04T18:02:39.886Z,24.30
2018-03-04T18:05:07.406Z,20.47
2018-03-04T18:07:35.697Z,22.43
2018-03-04T18:10:03.960Z,24.53
2018-03-04T18:12:41.949Z,46.83
2018-03-04T18:15:09.444Z,22.50
2018-03-04T18:17:36.962Z,44.63
2018-03-04T18:20:04.522Z,22.07
2018-03-04T18:22:32.321Z,20.73
2018-03-04T18:25:01.982Z,20.77
2018-03-04T18:27:31.627Z,19.20
2018-03-04T18:30:00.897Z,20.57
2018-03-04T18:32:29.371Z,20.23
2018-03-04T18:35:01.329Z,20.90
2018-03-04T18:37:30.257Z,21.93
2018-03-04T18:39:58.676Z,21.80
2018-03-04T18:42:28.452Z,23.00
2018-03-04T18:44:57.867Z,22.77
2018-03-04T18:47:28.551Z,24.70
2018-03-04T18:49:59.339Z,21.57
2018-03-04T18:52:38.654Z,27.77
2018-03-04T18:55:06.146Z,25.27
2018-03-04T18:57:34.450Z,27.63
2018-03-04T19:00:02.823Z,26.80
2018-03-04T19:02:32.861Z,26.47
2018-03-04T19:05:02.197Z,29.97
2018-03-04T19:07:32.318Z,27.33
2018-03-04T19:10:02.218Z,27.60
2018-03-04T19:12:32.450Z,27.60
2018-03-04T19:15:01.350Z,30.67
2018-03-04T19:17:31.725Z,29.67
2018-03-04T19:20:10.834Z,30.97
2018-03-04T19:22:38.362Z,30.90
2018-03-04T19:25:05.872Z,34.20
2018-03-04T19:27:33.394Z,34.57
2018-03-04T19:30:02.404Z,32.67
2018-03-04T19:32:32.034Z,32.80
2018-03-04T19:35:01.395Z,32.20
2018-03-04T19:37:31.322Z,33.27
2018-03-04T19:40:10.850Z,35.47
2018-03-04T19:42:38.396Z,32.47
2018-03-04T19:45:05.970Z,30.53
2018-03-04T19:47:33.470Z,32.30
2018-03-04T19:50:03.817Z,32.17
2018-03-04T19:52:33.433Z,34.83
2018-03-04T19:55:03.634Z,34.47
2018-03-04T19:57:34.719Z,32.83
2018-03-04T20:00:04.418Z,35.33
2018-03-04T20:02:33.413Z,34.80
2018-03-04T20:05:04.618Z,33.60
2018-03-04T20:07:34.722Z,35.77
2018-03-04T20:10:04.656Z,37.47
2018-03-04T20:12:35.016Z,35.83
2018-03-04T20:15:03.751Z,36.97
2018-03-04T20:17:33.594Z,37.00
2018-03-04T20:20:02.490Z,33.90
2018-03-04T20:22:32.249Z,35.93
2018-03-04T20:25:01.167Z,34.00
2018-03-04T20:27:31.409Z,33.33
2018-03-04T20:29:59.810Z,35.77
2018-03-04T20:32:29.865Z,36.20
2018-03-04T20:35:00.343Z,35.10
2018-03-04T20:37:29.162Z,35.57
2018-03-04T20:39:59.182Z,36.83
2018-03-04T20:42:30.561Z,35.53
2018-03-04T20:45:00.502Z,34.23
2018-03-04T20:47:29.026Z,38.07
2018-03-04T20:50:00.298Z,39.70
2018-03-04T20:52:29.279Z,37.00
2018-03-04T20:54:58.970Z,38.17
2018-03-04T20:57:30.571Z,39.70
2018-03-04T21:00:00.923Z,32.50
2018-03-04T21:02:30.386Z,39.67
2018-03-04T21:04:59.576Z,37.03
2018-03-04T21:07:38.681Z,37.60
2018-03-04T21:10:06.277Z,39.90
2018-03-04T21:12:34.561Z,37.10
2018-03-04T21:15:02.849Z,40.70
2018-03-04T21:17:32.169Z,39.00
2018-03-04T21:20:01.461Z,39.30
2018-03-04T21:22:28.988Z,38.80
2018-03-04T21:25:07.733Z,38.30
2018-03-04T21:27:35.246Z,39.67
2018-03-04T21:30:03.551Z,40.27
2018-03-04T21:32:31.818Z,41.60
2018-03-04T21:35:00.682Z,36.23
2018-03-04T21:37:28.952Z,39.73
2018-03-04T21:39:57.096Z,36.90
2018-03-04T21:42:26.198Z,38.37
2018-03-04T21:44:55.494Z,38.47
2018-03-04T21:47:23.970Z,37.30
2018-03-04T21:49:51.905Z,36.77
2018-03-04T21:52:20.192Z,36.67
2018-03-04T21:54:48.582Z,36.60
2018-03-04T21:57:16.877Z,35.70
2018-03-04T21:59:44.407Z,32.87
2018-03-04T22:02:11.917Z,35.57
2018-03-04T22:04:40.310Z,33.70
2018-03-04T22:07:08.944Z,36.77
2018-03-04T22:09:36.619Z,29.60
2018-03-04T22:12:04.267Z,27.30
2018-03-04T22:14:34.486Z,28.30
2018-03-04T22:17:02.831Z,19.27
2018-03-04T22:19:30.767Z,16.47
2018-03-04T22:21:58.335Z,13.07
2018-03-04T22:24:26.596Z,11.30
2018-03-04T22:26:54.143Z,9.83
2018-03-04T22:29:21.886Z,9.70
2018-03-04T22:31:49.586Z,9.40
2018-03-04T22:34:17.087Z,8.60
2018-03-04T22:36:44.612Z,7.37
2018-03-04T22:39:12.116Z,7.63
2018-03-04T22:41:39.735Z,7.23
2018-03-04T22:44:08.022Z,7.27
2018-03-04T22:46:35.932Z,6.50
2018-03-04T22:49:04.517Z,6.87
2018-03-04T22:51:34.333Z,7.23
2018-03-04T22:54:02.020Z,6.30
2018-03-04T22:56:30.226Z,7.40
2018-03-04T22:58:57.759Z,6.30
2018-03-04T23:01:25.325Z,6.80
2018-03-04T23:03:53.906Z,6.93
2018-03-04T23:06:21.623Z,7.00
2018-03-04T23:08:49.137Z,6.67
2018-03-04T23:11:16.763Z,6.40
2018-03-04T23:13:44.266Z,6.73
2018-03-04T23:16:11.889Z,7.03
2018-03-04T23:18:40.911Z,6.77
2018-03-04T23:21:09.804Z,6.50
2018-03-04T23:23:38.218Z,6.83
2018-03-04T23:26:09.241Z,6.00
2018-03-04T23:28:39.279Z,6.50
2018-03-04T23:31:10.450Z,6.13
2018-03-04T23:33:39.897Z,5.60
2018-03-04T23:36:07.949Z,4.90
2018-03-04T23:38:38.139Z,4.77
2018-03-04T23:41:09.123Z,3.97
2018-03-04T23:43:39.788Z,4.80
2018-03-04T23:46:11.154Z,3.50
2018-03-04T23:48:40.802Z,4.63
2018-03-04T23:51:10.025Z,3.70
2018-03-04T23:53:38.924Z,4.27
2018-03-04T23:56:08.618Z,4.60
2018-03-04T23:58:38.475Z,3.97
